sensor_id;sensor_type;location;lat;lon;timestamp;P1;durP1;ratioP1;P2;durP2;ratioP2
12725;SDS011;6427;49.754;6.106;2023-05-07T00:01:02;4.77;;;2.60;;
12725;SDS011;6427;49.754;6.106;2023-05-07T00:03:29;3.23;;;2.93;;
12725;SDS011;6427;49.754;6.106;2023-05-07T00:05:57;5.30;;;3.20;;
12725;SDS011;6427;49.754;6.106;2023-05-07T00:08:24;5.07;;;3.37;;
12725;SDS011;6427;49.754;6.106;2023-05-07T00:10:52;4.40;;;2.93;;
12725;SDS011;6427;49.754;6.106;2023-05-07T00:13:19;3.23;;;2.90;;
12725;SDS011;6427;49.754;6.106;2023-05-07T00:15:47;4.63;;;3.10;;
12725;SDS011;6427;49.754;6.106;2023-05-07T00:18:14;6.13;;;3.57;;
12725;SDS011;6427;49.754;6.106;2023-05-07T00:20:43;4.37;;;3.13;;
12725;SDS011;6427;49.754;6.106;2023-05-07T00:23:11;5.67;;;3.30;;
12725;SDS011;6427;49.754;6.106;2023-05-07T00:25:38;7.33;;;3.60;;
12725;SDS011;6427;49.754;6.106;2023-05-07T00:28:06;5.43;;;3.50;;
12725;SDS011;6427;49.754;6.106;2023-05-07T00:30:34;5.33;;;3.53;;
12725;SDS011;6427;49.754;6.106;2023-05-07T00:33:02;4.13;;;3.43;;
12725;SDS011;6427;49.754;6.106;2023-05-07T00:35:30;4.13;;;3.40;;
12725;SDS011;6427;49.754;6.106;2023-05-07T00:37:57;4.70;;;3.97;;
12725;SDS011;6427;49.754;6.106;2023-05-07T00:40:25;6.50;;;4.50;;
12725;SDS011;6427;49.754;6.106;2023-05-07T00:42:53;7.47;;;4.93;;
12725;SDS011;6427;49.754;6.106;2023-05-07T00:45:21;7.70;;;4.90;;
12725;SDS011;6427;49.754;6.106;2023-05-07T00:47:49;7.07;;;5.23;;
12725;SDS011;6427;49.754;6.106;2023-05-07T00:50:17;7.75;;;6.18;;
12725;SDS011;6427;49.754;6.106;2023-05-07T00:52:45;8.77;;;7.68;;
12725;SDS011;6427;49.754;6.106;2023-05-07T00:55:12;6.10;;;5.43;;
12725;SDS011;6427;49.754;6.106;2023-05-07T00:57:41;5.57;;;4.40;;
12725;SDS011;6427;49.754;6.106;2023-05-07T01:00:08;5.50;;;4.77;;
12725;SDS011;6427;49.754;6.106;2023-05-07T01:02:36;8.00;;;4.37;;
12725;SDS011;6427;49.754;6.106;2023-05-07T01:05:03;6.93;;;4.60;;
12725;SDS011;6427;49.754;6.106;2023-05-07T01:07:31;6.60;;;4.80;;
12725;SDS011;6427;49.754;6.106;2023-05-07T01:09:59;5.73;;;4.40;;
12725;SDS011;6427;49.754;6.106;2023-05-07T01:12:26;6.93;;;4.53;;
12725;SDS011;6427;49.754;6.106;2023-05-07T01:14:54;5.90;;;4.50;;
12725;SDS011;6427;49.754;6.106;2023-05-07T01:17:21;5.75;;;5.20;;
12725;SDS011;6427;49.754;6.106;2023-05-07T01:19:49;7.40;;;5.20;;
12725;SDS011;6427;49.754;6.106;2023-05-07T01:22:17;6.93;;;4.50;;
12725;SDS011;6427;49.754;6.106;2023-05-07T01:24:44;6.77;;;4.50;;
12725;SDS011;6427;49.754;6.106;2023-05-07T01:27:12;4.97;;;4.40;;
12725;SDS011;6427;49.754;6.106;2023-05-07T01:29:40;7.43;;;4.40;;
12725;SDS011;6427;49.754;6.106;2023-05-07T01:32:08;5.83;;;4.33;;
12725;SDS011;6427;49.754;6.106;2023-05-07T01:34:36;5.60;;;4.40;;
12725;SDS011;6427;49.754;6.106;2023-05-07T01:37:04;5.77;;;4.07;;
12725;SDS011;6427;49.754;6.106;2023-05-07T01:39:31;5.57;;;4.90;;
12725;SDS011;6427;49.754;6.106;2023-05-07T01:41:59;5.17;;;3.73;;
12725;SDS011;6427;49.754;6.106;2023-05-07T01:44:27;5.93;;;4.00;;
12725;SDS011;6427;49.754;6.106;2023-05-07T01:46:55;5.03;;;4.00;;
12725;SDS011;6427;49.754;6.106;2023-05-07T01:49:22;6.97;;;3.93;;
12725;SDS011;6427;49.754;6.106;2023-05-07T01:51:50;8.47;;;5.00;;
12725;SDS011;6427;49.754;6.106;2023-05-07T01:54:18;5.47;;;4.20;;
12725;SDS011;6427;49.754;6.106;2023-05-07T01:56:46;4.90;;;3.73;;
12725;SDS011;6427;49.754;6.106;2023-05-07T01:59:14;6.70;;;3.80;;
12725;SDS011;6427;49.754;6.106;2023-05-07T02:01:42;5.00;;;4.47;;
12725;SDS011;6427;49.754;6.106;2023-05-07T02:04:10;6.90;;;4.30;;
12725;SDS011;6427;49.754;6.106;2023-05-07T02:06:37;6.70;;;4.20;;
12725;SDS011;6427;49.754;6.106;2023-05-07T02:09:05;6.00;;;4.37;;
12725;SDS011;6427;49.754;6.106;2023-05-07T02:11:33;5.33;;;4.00;;
12725;SDS011;6427;49.754;6.106;2023-05-07T02:14:01;6.13;;;4.40;;
12725;SDS011;6427;49.754;6.106;2023-05-07T02:16:28;7.07;;;4.27;;
12725;SDS011;6427;49.754;6.106;2023-05-07T02:18:57;5.43;;;4.40;;
12725;SDS011;6427;49.754;6.106;2023-05-07T02:21:25;12.20;;;5.17;;
12725;SDS011;6427;49.754;6.106;2023-05-07T02:23:53;5.97;;;5.13;;
12725;SDS011;6427;49.754;6.106;2023-05-07T02:26:20;7.57;;;5.20;;
12725;SDS011;6427;49.754;6.106;2023-05-07T02:28:48;5.77;;;4.73;;
12725;SDS011;6427;49.754;6.106;2023-05-07T02:31:16;5.43;;;4.70;;
12725;SDS011;6427;49.754;6.106;2023-05-07T02:33:44;6.37;;;4.90;;
12725;SDS011;6427;49.754;6.106;2023-05-07T02:36:12;7.90;;;4.50;;
12725;SDS011;6427;49.754;6.106;2023-05-07T02:38:39;6.30;;;5.05;;
12725;SDS011;6427;49.754;6.106;2023-05-07T02:41:08;5.60;;;4.73;;
12725;SDS011;6427;49.754;6.106;2023-05-07T02:43:36;5.17;;;4.63;;
12725;SDS011;6427;49.754;6.106;2023-05-07T02:46:04;5.83;;;4.27;;
12725;SDS011;6427;49.754;6.106;2023-05-07T02:48:31;4.57;;;4.13;;
12725;SDS011;6427;49.754;6.106;2023-05-07T02:50:58;4.93;;;3.90;;
12725;SDS011;6427;49.754;6.106;2023-05-07T02:53:27;4.30;;;3.87;;
12725;SDS011;6427;49.754;6.106;2023-05-07T02:55:57;6.53;;;3.97;;
12725;SDS011;6427;49.754;6.106;2023-05-07T02:58:25;5.23;;;4.60;;
12725;SDS011;6427;49.754;6.106;2023-05-07T03:00:53;6.83;;;5.10;;
12725;SDS011;6427;49.754;6.106;2023-05-07T03:03:21;5.33;;;4.00;;
12725;SDS011;6427;49.754;6.106;2023-05-07T03:05:49;5.97;;;4.30;;
12725;SDS011;6427;49.754;6.106;2023-05-07T03:08:17;5.87;;;4.70;;
12725;SDS011;6427;49.754;6.106;2023-05-07T03:10:44;5.73;;;4.50;;
12725;SDS011;6427;49.754;6.106;2023-05-07T03:13:12;4.80;;;4.13;;
12725;SDS011;6427;49.754;6.106;2023-05-07T03:15:40;6.93;;;4.43;;
12725;SDS011;6427;49.754;6.106;2023-05-07T03:18:08;4.63;;;4.20;;
12725;SDS011;6427;49.754;6.106;2023-05-07T03:20:36;6.30;;;4.57;;
12725;SDS011;6427;49.754;6.106;2023-05-07T03:23:03;9.50;;;6.00;;
12725;SDS011;6427;49.754;6.106;2023-05-07T03:25:32;5.73;;;4.70;;
12725;SDS011;6427;49.754;6.106;2023-05-07T03:27:59;5.53;;;4.30;;
12725;SDS011;6427;49.754;6.106;2023-05-07T03:30:27;5.07;;;4.37;;
12725;SDS011;6427;49.754;6.106;2023-05-07T03:32:54;7.68;;;5.18;;
12725;SDS011;6427;49.754;6.106;2023-05-07T03:35:22;6.47;;;4.50;;
12725;SDS011;6427;49.754;6.106;2023-05-07T03:37:51;7.53;;;4.60;;
12725;SDS011;6427;49.754;6.106;2023-05-07T03:40:18;7.33;;;4.83;;
12725;SDS011;6427;49.754;6.106;2023-05-07T03:42:46;8.57;;;4.37;;
12725;SDS011;6427;49.754;6.106;2023-05-07T03:45:13;7.60;;;5.60;;
12725;SDS011;6427;49.754;6.106;2023-05-07T03:47:42;6.33;;;4.47;;
12725;SDS011;6427;49.754;6.106;2023-05-07T03:50:09;7.53;;;4.83;;
12725;SDS011;6427;49.754;6.106;2023-05-07T03:52:37;4.80;;;4.30;;
12725;SDS011;6427;49.754;6.106;2023-05-07T03:55:06;4.70;;;4.23;;
12725;SDS011;6427;49.754;6.106;2023-05-07T03:57:35;5.07;;;4.43;;
12725;SDS011;6427;49.754;6.106;2023-05-07T04:00:02;4.40;;;4.00;;
12725;SDS011;6427;49.754;6.106;2023-05-07T04:02:30;6.23;;;4.70;;
12725;SDS011;6427;49.754;6.106;2023-05-07T04:04:58;5.07;;;4.50;;
12725;SDS011;6427;49.754;6.106;2023-05-07T04:07:26;6.10;;;5.50;;
12725;SDS011;6427;49.754;6.106;2023-05-07T04:09:53;8.87;;;4.90;;
12725;SDS011;6427;49.754;6.106;2023-05-07T04:12:21;5.40;;;4.63;;
12725;SDS011;6427;49.754;6.106;2023-05-07T04:14:48;7.30;;;5.03;;
12725;SDS011;6427;49.754;6.106;2023-05-07T04:17:16;5.93;;;4.20;;
12725;SDS011;6427;49.754;6.106;2023-05-07T04:19:43;6.30;;;4.67;;
12725;SDS011;6427;49.754;6.106;2023-05-07T04:22:12;4.90;;;4.20;;
12725;SDS011;6427;49.754;6.106;2023-05-07T04:24:39;7.03;;;4.60;;
12725;SDS011;6427;49.754;6.106;2023-05-07T04:27:07;5.77;;;4.30;;
12725;SDS011;6427;49.754;6.106;2023-05-07T04:29:35;7.17;;;4.47;;
12725;SDS011;6427;49.754;6.106;2023-05-07T04:32:03;5.77;;;4.33;;
12725;SDS011;6427;49.754;6.106;2023-05-07T04:34:30;4.33;;;3.93;;
12725;SDS011;6427;49.754;6.106;2023-05-07T04:36:59;5.87;;;4.13;;
12725;SDS011;6427;49.754;6.106;2023-05-07T04:39:26;7.00;;;4.37;;
12725;SDS011;6427;49.754;6.106;2023-05-07T04:41:54;4.67;;;4.03;;
12725;SDS011;6427;49.754;6.106;2023-05-07T04:44:21;5.17;;;4.67;;
12725;SDS011;6427;49.754;6.106;2023-05-07T04:46:49;7.90;;;5.32;;
12725;SDS011;6427;49.754;6.106;2023-05-07T04:49:17;5.10;;;4.40;;
12725;SDS011;6427;49.754;6.106;2023-05-07T04:51:45;10.20;;;4.50;;
12725;SDS011;6427;49.754;6.106;2023-05-07T04:54:12;5.90;;;5.03;;
12725;SDS011;6427;49.754;6.106;2023-05-07T04:56:40;11.73;;;5.27;;
12725;SDS011;6427;49.754;6.106;2023-05-07T04:59:08;6.13;;;4.80;;
12725;SDS011;6427;49.754;6.106;2023-05-07T05:01:35;6.83;;;4.33;;
12725;SDS011;6427;49.754;6.106;2023-05-07T05:04:04;5.50;;;4.33;;
12725;SDS011;6427;49.754;6.106;2023-05-07T05:06:31;6.67;;;5.10;;
12725;SDS011;6427;49.754;6.106;2023-05-07T05:08:59;6.10;;;4.83;;
12725;SDS011;6427;49.754;6.106;2023-05-07T05:11:26;6.33;;;4.90;;
12725;SDS011;6427;49.754;6.106;2023-05-07T05:13:54;6.67;;;4.73;;
12725;SDS011;6427;49.754;6.106;2023-05-07T05:16:22;5.93;;;4.90;;
12725;SDS011;6427;49.754;6.106;2023-05-07T05:18:50;5.00;;;4.50;;
12725;SDS011;6427;49.754;6.106;2023-05-07T05:21:18;5.47;;;4.63;;
12725;SDS011;6427;49.754;6.106;2023-05-07T05:23:46;5.30;;;4.80;;
12725;SDS011;6427;49.754;6.106;2023-05-07T05:26:13;5.30;;;4.80;;
12725;SDS011;6427;49.754;6.106;2023-05-07T05:28:41;5.10;;;4.60;;
12725;SDS011;6427;49.754;6.106;2023-05-07T05:31:08;5.70;;;4.77;;
12725;SDS011;6427;49.754;6.106;2023-05-07T05:33:37;5.80;;;4.30;;
12725;SDS011;6427;49.754;6.106;2023-05-07T05:36:05;5.20;;;4.70;;
12725;SDS011;6427;49.754;6.106;2023-05-07T05:38:32;6.37;;;5.20;;
12725;SDS011;6427;49.754;6.106;2023-05-07T05:41:00;9.20;;;5.03;;
12725;SDS011;6427;49.754;6.106;2023-05-07T05:43:29;5.87;;;5.27;;
12725;SDS011;6427;49.754;6.106;2023-05-07T05:45:56;6.53;;;5.75;;
12725;SDS011;6427;49.754;6.106;2023-05-07T05:48:24;8.30;;;4.63;;
12725;SDS011;6427;49.754;6.106;2023-05-07T05:50:51;7.57;;;4.70;;
12725;SDS011;6427;49.754;6.106;2023-05-07T05:53:21;4.97;;;4.47;;
12725;SDS011;6427;49.754;6.106;2023-05-07T05:55:48;5.50;;;4.93;;
12725;SDS011;6427;49.754;6.106;2023-05-07T05:58:16;7.67;;;4.90;;
12725;SDS011;6427;49.754;6.106;2023-05-07T06:00:44;5.13;;;4.53;;
12725;SDS011;6427;49.754;6.106;2023-05-07T06:03:12;5.97;;;4.73;;
12725;SDS011;6427;49.754;6.106;2023-05-07T06:05:41;6.43;;;4.70;;
12725;SDS011;6427;49.754;6.106;2023-05-07T06:08:08;5.10;;;4.63;;
12725;SDS011;6427;49.754;6.106;2023-05-07T06:10:36;4.83;;;4.43;;
12725;SDS011;6427;49.754;6.106;2023-05-07T06:13:03;6.00;;;5.40;;
12725;SDS011;6427;49.754;6.106;2023-05-07T06:15:31;8.23;;;5.23;;
12725;SDS011;6427;49.754;6.106;2023-05-07T06:17:59;5.30;;;4.80;;
12725;SDS011;6427;49.754;6.106;2023-05-07T06:20:26;5.33;;;4.83;;
12725;SDS011;6427;49.754;6.106;2023-05-07T06:22:54;5.20;;;4.63;;
12725;SDS011;6427;49.754;6.106;2023-05-07T06:25:22;6.00;;;4.97;;
12725;SDS011;6427;49.754;6.106;2023-05-07T06:27:50;7.20;;;4.87;;
12725;SDS011;6427;49.754;6.106;2023-05-07T06:30:17;5.93;;;5.17;;
12725;SDS011;6427;49.754;6.106;2023-05-07T06:32:45;5.40;;;4.43;;
12725;SDS011;6427;49.754;6.106;2023-05-07T06:35:13;6.07;;;4.90;;
12725;SDS011;6427;49.754;6.106;2023-05-07T06:37:41;5.00;;;4.30;;
12725;SDS011;6427;49.754;6.106;2023-05-07T06:40:08;4.57;;;4.17;;
12725;SDS011;6427;49.754;6.106;2023-05-07T06:42:36;8.77;;;4.77;;
12725;SDS011;6427;49.754;6.106;2023-05-07T06:45:04;4.70;;;4.17;;
12725;SDS011;6427;49.754;6.106;2023-05-07T06:47:33;5.67;;;4.60;;
12725;SDS011;6427;49.754;6.106;2023-05-07T06:50:00;5.37;;;4.87;;
12725;SDS011;6427;49.754;6.106;2023-05-07T06:52:29;5.30;;;4.67;;
12725;SDS011;6427;49.754;6.106;2023-05-07T06:54:56;5.27;;;4.63;;
12725;SDS011;6427;49.754;6.106;2023-05-07T06:57:24;4.47;;;4.07;;
12725;SDS011;6427;49.754;6.106;2023-05-07T06:59:51;10.10;;;6.03;;
12725;SDS011;6427;49.754;6.106;2023-05-07T07:02:19;14.73;;;8.47;;
12725;SDS011;6427;49.754;6.106;2023-05-07T07:04:47;4.40;;;4.00;;
12725;SDS011;6427;49.754;6.106;2023-05-07T07:07:15;4.27;;;3.87;;
12725;SDS011;6427;49.754;6.106;2023-05-07T07:09:43;4.90;;;4.13;;
12725;SDS011;6427;49.754;6.106;2023-05-07T07:12:10;5.40;;;3.90;;
12725;SDS011;6427;49.754;6.106;2023-05-07T07:14:38;4.87;;;4.10;;
12725;SDS011;6427;49.754;6.106;2023-05-07T07:17:05;5.07;;;3.40;;
12725;SDS011;6427;49.754;6.106;2023-05-07T07:19:34;4.40;;;3.80;;
12725;SDS011;6427;49.754;6.106;2023-05-07T07:22:01;6.70;;;5.17;;
12725;SDS011;6427;49.754;6.106;2023-05-07T07:24:29;6.00;;;4.77;;
12725;SDS011;6427;49.754;6.106;2023-05-07T07:26:57;4.27;;;3.80;;
12725;SDS011;6427;49.754;6.106;2023-05-07T07:29:25;6.87;;;3.90;;
12725;SDS011;6427;49.754;6.106;2023-05-07T07:31:52;4.33;;;3.67;;
12725;SDS011;6427;49.754;6.106;2023-05-07T07:34:20;4.28;;;3.87;;
12725;SDS011;6427;49.754;6.106;2023-05-07T07:36:47;6.53;;;3.77;;
12725;SDS011;6427;49.754;6.106;2023-05-07T07:39:15;5.33;;;3.33;;
12725;SDS011;6427;49.754;6.106;2023-05-07T07:41:42;5.35;;;3.70;;
12725;SDS011;6427;49.754;6.106;2023-05-07T07:44:10;3.97;;;3.30;;
12725;SDS011;6427;49.754;6.106;2023-05-07T07:46:38;3.80;;;2.87;;
12725;SDS011;6427;49.754;6.106;2023-05-07T07:49:05;5.17;;;3.60;;
12725;SDS011;6427;49.754;6.106;2023-05-07T07:51:33;3.60;;;3.30;;
12725;SDS011;6427;49.754;6.106;2023-05-07T07:54:01;3.43;;;2.60;;
12725;SDS011;6427;49.754;6.106;2023-05-07T07:56:28;6.57;;;4.60;;
12725;SDS011;6427;49.754;6.106;2023-05-07T07:58:56;4.30;;;3.30;;
12725;SDS011;6427;49.754;6.106;2023-05-07T08:01:24;5.33;;;3.53;;
12725;SDS011;6427;49.754;6.106;2023-05-07T08:03:52;8.67;;;5.23;;
12725;SDS011;6427;49.754;6.106;2023-05-07T08:06:19;16.93;;;9.10;;
12725;SDS011;6427;49.754;6.106;2023-05-07T08:08:47;4.63;;;3.30;;
12725;SDS011;6427;49.754;6.106;2023-05-07T08:11:14;5.47;;;3.77;;
12725;SDS011;6427;49.754;6.106;2023-05-07T08:13:42;6.23;;;4.20;;
12725;SDS011;6427;49.754;6.106;2023-05-07T08:16:09;5.20;;;3.20;;
12725;SDS011;6427;49.754;6.106;2023-05-07T08:18:37;5.87;;;4.73;;
12725;SDS011;6427;49.754;6.106;2023-05-07T08:21:04;4.13;;;3.10;;
12725;SDS011;6427;49.754;6.106;2023-05-07T08:23:32;3.53;;;2.80;;
12725;SDS011;6427;49.754;6.106;2023-05-07T08:26:00;3.93;;;2.97;;
12725;SDS011;6427;49.754;6.106;2023-05-07T08:28:27;4.40;;;3.93;;
12725;SDS011;6427;49.754;6.106;2023-05-07T08:30:55;6.90;;;3.30;;
12725;SDS011;6427;49.754;6.106;2023-05-07T08:33:22;9.17;;;2.60;;
12725;SDS011;6427;49.754;6.106;2023-05-07T08:35:50;4.07;;;3.00;;
12725;SDS011;6427;49.754;6.106;2023-05-07T08:38:17;6.20;;;3.37;;
12725;SDS011;6427;49.754;6.106;2023-05-07T08:40:45;4.20;;;2.47;;
12725;SDS011;6427;49.754;6.106;2023-05-07T08:43:13;3.20;;;2.90;;
12725;SDS011;6427;49.754;6.106;2023-05-07T08:45:40;5.27;;;2.70;;
12725;SDS011;6427;49.754;6.106;2023-05-07T08:48:09;3.43;;;2.50;;
12725;SDS011;6427;49.754;6.106;2023-05-07T08:50:36;3.67;;;2.60;;
12725;SDS011;6427;49.754;6.106;2023-05-07T08:53:04;3.67;;;2.83;;
12725;SDS011;6427;49.754;6.106;2023-05-07T08:55:32;4.63;;;2.83;;
12725;SDS011;6427;49.754;6.106;2023-05-07T08:58:00;3.33;;;2.83;;
12725;SDS011;6427;49.754;6.106;2023-05-07T09:00:27;3.50;;;3.13;;
12725;SDS011;6427;49.754;6.106;2023-05-07T09:02:55;4.33;;;2.73;;
12725;SDS011;6427;49.754;6.106;2023-05-07T09:05:22;3.37;;;2.80;;
12725;SDS011;6427;49.754;6.106;2023-05-07T09:07:50;6.37;;;2.80;;
12725;SDS011;6427;49.754;6.106;2023-05-07T09:10:19;4.13;;;2.53;;
12725;SDS011;6427;49.754;6.106;2023-05-07T09:12:47;3.03;;;2.57;;
12725;SDS011;6427;49.754;6.106;2023-05-07T09:15:15;5.60;;;2.67;;
12725;SDS011;6427;49.754;6.106;2023-05-07T09:17:42;4.57;;;2.40;;
12725;SDS011;6427;49.754;6.106;2023-05-07T09:20:10;3.90;;;2.30;;
12725;SDS011;6427;49.754;6.106;2023-05-07T09:22:38;2.60;;;2.33;;
12725;SDS011;6427;49.754;6.106;2023-05-07T09:25:06;3.13;;;2.20;;
12725;SDS011;6427;49.754;6.106;2023-05-07T09:27:33;3.93;;;2.23;;
12725;SDS011;6427;49.754;6.106;2023-05-07T09:30:07;4.22;;;2.20;;
12725;SDS011;6427;49.754;6.106;2023-05-07T09:32:34;3.90;;;2.33;;
12725;SDS011;6427;49.754;6.106;2023-05-07T09:35:03;3.00;;;2.43;;
12725;SDS011;6427;49.754;6.106;2023-05-07T09:37:31;2.40;;;2.20;;
12725;SDS011;6427;49.754;6.106;2023-05-07T09:39:59;2.83;;;2.53;;
12725;SDS011;6427;49.754;6.106;2023-05-07T09:42:27;2.60;;;2.00;;
12725;SDS011;6427;49.754;6.106;2023-05-07T09:44:54;3.00;;;2.20;;
12725;SDS011;6427;49.754;6.106;2023-05-07T09:47:23;4.18;;;2.80;;
12725;SDS011;6427;49.754;6.106;2023-05-07T09:49:49;2.77;;;2.43;;
12725;SDS011;6427;49.754;6.106;2023-05-07T09:52:17;3.30;;;2.10;;
12725;SDS011;6427;49.754;6.106;2023-05-07T09:54:45;2.40;;;2.00;;
12725;SDS011;6427;49.754;6.106;2023-05-07T09:57:12;3.90;;;2.27;;
12725;SDS011;6427;49.754;6.106;2023-05-07T09:59:40;3.23;;;2.10;;
12725;SDS011;6427;49.754;6.106;2023-05-07T10:02:07;4.23;;;2.20;;
12725;SDS011;6427;49.754;6.106;2023-05-07T10:04:35;3.67;;;2.60;;
12725;SDS011;6427;49.754;6.106;2023-05-07T10:07:03;2.50;;;2.10;;
12725;SDS011;6427;49.754;6.106;2023-05-07T10:09:30;4.13;;;2.70;;
12725;SDS011;6427;49.754;6.106;2023-05-07T10:11:57;2.70;;;2.50;;
12725;SDS011;6427;49.754;6.106;2023-05-07T10:14:26;2.17;;;1.97;;
12725;SDS011;6427;49.754;6.106;2023-05-07T10:16:54;3.43;;;2.67;;
12725;SDS011;6427;49.754;6.106;2023-05-07T10:19:21;5.73;;;3.20;;
12725;SDS011;6427;49.754;6.106;2023-05-07T10:21:56;4.07;;;2.37;;
12725;SDS011;6427;49.754;6.106;2023-05-07T10:24:21;4.03;;;2.30;;
12725;SDS011;6427;49.754;6.106;2023-05-07T10:26:48;3.97;;;1.87;;
12725;SDS011;6427;49.754;6.106;2023-05-07T10:29:17;2.67;;;1.80;;
12725;SDS011;6427;49.754;6.106;2023-05-07T10:34:34;2.43;;;2.00;;
12725;SDS011;6427;49.754;6.106;2023-05-07T10:37:00;4.90;;;1.77;;
12725;SDS011;6427;49.754;6.106;2023-05-07T10:39:27;4.03;;;1.50;;
12725;SDS011;6427;49.754;6.106;2023-05-07T10:41:55;2.30;;;1.67;;
12725;SDS011;6427;49.754;6.106;2023-05-07T10:44:26;1.92;;;1.30;;
12725;SDS011;6427;49.754;6.106;2023-05-07T10:47:06;2.80;;;1.27;;
12725;SDS011;6427;49.754;6.106;2023-05-07T10:54:41;1.47;;;0.90;;
12725;SDS011;6427;49.754;6.106;2023-05-07T10:59:55;3.13;;;1.30;;
12725;SDS011;6427;49.754;6.106;2023-05-07T11:02:22;1.80;;;1.20;;
12725;SDS011;6427;49.754;6.106;2023-05-07T11:07:54;1.50;;;1.40;;
12725;SDS011;6427;49.754;6.106;2023-05-07T11:13:14;2.90;;;1.20;;
12725;SDS011;6427;49.754;6.106;2023-05-07T11:15:46;2.90;;;1.30;;
12725;SDS011;6427;49.754;6.106;2023-05-07T11:18:09;2.70;;;1.30;;
12725;SDS011;6427;49.754;6.106;2023-05-07T11:20:46;1.60;;;1.23;;
12725;SDS011;6427;49.754;6.106;2023-05-07T11:26:05;1.00;;;0.90;;
12725;SDS011;6427;49.754;6.106;2023-05-07T11:28:36;1.77;;;1.10;;
12725;SDS011;6427;49.754;6.106;2023-05-07T11:31:06;4.30;;;1.30;;
12725;SDS011;6427;49.754;6.106;2023-05-07T11:33:34;4.50;;;1.33;;
12725;SDS011;6427;49.754;6.106;2023-05-07T11:36:02;7.40;;;2.47;;
12725;SDS011;6427;49.754;6.106;2023-05-07T11:38:35;13.10;;;3.30;;
12725;SDS011;6427;49.754;6.106;2023-05-07T11:41:03;7.27;;;2.77;;
12725;SDS011;6427;49.754;6.106;2023-05-07T11:43:31;1.90;;;1.67;;
12725;SDS011;6427;49.754;6.106;2023-05-07T11:46:08;2.87;;;1.50;;
12725;SDS011;6427;49.754;6.106;2023-05-07T11:48:38;2.90;;;1.57;;
12725;SDS011;6427;49.754;6.106;2023-05-07T11:51:06;2.37;;;1.50;;
12725;SDS011;6427;49.754;6.106;2023-05-07T11:53:40;4.20;;;1.50;;
12725;SDS011;6427;49.754;6.106;2023-05-07T11:56:11;2.57;;;1.30;;
12725;SDS011;6427;49.754;6.106;2023-05-07T11:58:38;2.40;;;1.60;;
12725;SDS011;6427;49.754;6.106;2023-05-07T12:01:07;2.50;;;1.53;;
12725;SDS011;6427;49.754;6.106;2023-05-07T12:03:33;3.30;;;1.60;;
12725;SDS011;6427;49.754;6.106;2023-05-07T12:06:02;3.70;;;1.80;;
12725;SDS011;6427;49.754;6.106;2023-05-07T12:08:29;3.25;;;1.95;;
12725;SDS011;6427;49.754;6.106;2023-05-07T12:10:57;2.78;;;1.90;;
12725;SDS011;6427;49.754;6.106;2023-05-07T12:13:25;2.50;;;2.13;;
12725;SDS011;6427;49.754;6.106;2023-05-07T12:15:53;2.83;;;1.80;;
12725;SDS011;6427;49.754;6.106;2023-05-07T12:18:20;2.53;;;1.80;;
12725;SDS011;6427;49.754;6.106;2023-05-07T12:20:48;2.27;;;1.40;;
12725;SDS011;6427;49.754;6.106;2023-05-07T12:23:15;5.23;;;1.80;;
12725;SDS011;6427;49.754;6.106;2023-05-07T12:25:43;2.87;;;1.70;;
12725;SDS011;6427;49.754;6.106;2023-05-07T12:28:12;2.67;;;1.90;;
12725;SDS011;6427;49.754;6.106;2023-05-07T12:30:38;2.37;;;1.70;;
12725;SDS011;6427;49.754;6.106;2023-05-07T12:33:06;2.03;;;1.63;;
12725;SDS011;6427;49.754;6.106;2023-05-07T12:35:37;1.83;;;1.50;;
12725;SDS011;6427;49.754;6.106;2023-05-07T12:38:03;1.80;;;1.60;;
12725;SDS011;6427;49.754;6.106;2023-05-07T12:40:38;1.60;;;1.50;;
12725;SDS011;6427;49.754;6.106;2023-05-07T12:43:08;1.90;;;1.80;;
12725;SDS011;6427;49.754;6.106;2023-05-07T12:45:39;3.13;;;1.90;;
12725;SDS011;6427;49.754;6.106;2023-05-07T12:48:07;3.97;;;1.80;;
12725;SDS011;6427;49.754;6.106;2023-05-07T12:50:35;2.77;;;1.93;;
12725;SDS011;6427;49.754;6.106;2023-05-07T12:53:04;2.40;;;1.70;;
12725;SDS011;6427;49.754;6.106;2023-05-07T12:55:31;3.12;;;1.80;;
12725;SDS011;6427;49.754;6.106;2023-05-07T12:58:00;1.83;;;1.63;;
12725;SDS011;6427;49.754;6.106;2023-05-07T13:00:37;2.10;;;1.70;;
12725;SDS011;6427;49.754;6.106;2023-05-07T13:02:59;2.97;;;1.50;;
12725;SDS011;6427;49.754;6.106;2023-05-07T13:05:27;1.40;;;1.13;;
12725;SDS011;6427;49.754;6.106;2023-05-07T13:07:55;1.87;;;0.90;;
12725;SDS011;6427;49.754;6.106;2023-05-07T13:10:23;3.73;;;1.63;;
12725;SDS011;6427;49.754;6.106;2023-05-07T13:12:51;2.73;;;1.80;;
12725;SDS011;6427;49.754;6.106;2023-05-07T13:15:19;2.23;;;2.03;;
12725;SDS011;6427;49.754;6.106;2023-05-07T13:17:47;1.53;;;1.40;;
12725;SDS011;6427;49.754;6.106;2023-05-07T13:20:16;2.40;;;1.70;;
12725;SDS011;6427;49.754;6.106;2023-05-07T13:22:44;3.03;;;1.73;;
12725;SDS011;6427;49.754;6.106;2023-05-07T13:25:13;3.43;;;1.30;;
12725;SDS011;6427;49.754;6.106;2023-05-07T13:27:41;3.27;;;1.57;;
12725;SDS011;6427;49.754;6.106;2023-05-07T13:30:08;4.50;;;1.70;;
12725;SDS011;6427;49.754;6.106;2023-05-07T13:32:37;3.40;;;1.77;;
12725;SDS011;6427;49.754;6.106;2023-05-07T13:35:04;3.17;;;1.70;;
12725;SDS011;6427;49.754;6.106;2023-05-07T13:37:32;2.43;;;1.23;;
12725;SDS011;6427;49.754;6.106;2023-05-07T13:39:59;4.20;;;1.20;;
12725;SDS011;6427;49.754;6.106;2023-05-07T13:42:27;1.77;;;1.17;;
12725;SDS011;6427;49.754;6.106;2023-05-07T13:44:55;3.30;;;1.40;;
12725;SDS011;6427;49.754;6.106;2023-05-07T13:47:23;1.57;;;1.33;;
12725;SDS011;6427;49.754;6.106;2023-05-07T13:49:50;1.77;;;1.60;;
12725;SDS011;6427;49.754;6.106;2023-05-07T13:52:19;1.97;;;1.33;;
12725;SDS011;6427;49.754;6.106;2023-05-07T13:54:46;3.77;;;1.67;;
12725;SDS011;6427;49.754;6.106;2023-05-07T13:57:14;3.70;;;1.70;;
12725;SDS011;6427;49.754;6.106;2023-05-07T13:59:42;1.30;;;1.20;;
12725;SDS011;6427;49.754;6.106;2023-05-07T14:02:09;2.13;;;1.50;;
12725;SDS011;6427;49.754;6.106;2023-05-07T14:04:37;5.33;;;1.87;;
12725;SDS011;6427;49.754;6.106;2023-05-07T14:07:04;1.60;;;1.50;;
12725;SDS011;6427;49.754;6.106;2023-05-07T14:09:32;3.43;;;1.70;;
12725;SDS011;6427;49.754;6.106;2023-05-07T14:12:00;3.23;;;1.43;;
12725;SDS011;6427;49.754;6.106;2023-05-07T14:14:28;2.03;;;1.50;;
12725;SDS011;6427;49.754;6.106;2023-05-07T14:16:56;2.90;;;1.50;;
12725;SDS011;6427;49.754;6.106;2023-05-07T14:19:24;5.43;;;2.27;;
12725;SDS011;6427;49.754;6.106;2023-05-07T14:21:51;1.77;;;1.67;;
12725;SDS011;6427;49.754;6.106;2023-05-07T14:24:19;3.90;;;2.20;;
12725;SDS011;6427;49.754;6.106;2023-05-07T14:26:47;3.80;;;2.10;;
12725;SDS011;6427;49.754;6.106;2023-05-07T14:29:14;3.17;;;1.85;;
12725;SDS011;6427;49.754;6.106;2023-05-07T14:31:42;2.43;;;1.83;;
12725;SDS011;6427;49.754;6.106;2023-05-07T14:34:10;1.83;;;1.63;;
12725;SDS011;6427;49.754;6.106;2023-05-07T14:36:38;1.77;;;1.67;;
12725;SDS011;6427;49.754;6.106;2023-05-07T14:39:05;2.17;;;1.60;;
12725;SDS011;6427;49.754;6.106;2023-05-07T14:41:33;2.73;;;1.83;;
12725;SDS011;6427;49.754;6.106;2023-05-07T14:44:01;2.73;;;1.90;;
12725;SDS011;6427;49.754;6.106;2023-05-07T14:46:28;2.27;;;1.80;;
12725;SDS011;6427;49.754;6.106;2023-05-07T14:48:57;2.83;;;1.73;;
12725;SDS011;6427;49.754;6.106;2023-05-07T14:51:24;4.23;;;1.90;;
12725;SDS011;6427;49.754;6.106;2023-05-07T14:53:51;2.90;;;2.17;;
12725;SDS011;6427;49.754;6.106;2023-05-07T14:56:19;3.00;;;2.00;;
12725;SDS011;6427;49.754;6.106;2023-05-07T14:58:47;3.57;;;1.80;;
12725;SDS011;6427;49.754;6.106;2023-05-07T15:01:14;2.47;;;2.00;;
12725;SDS011;6427;49.754;6.106;2023-05-07T15:03:42;3.17;;;2.00;;
12725;SDS011;6427;49.754;6.106;2023-05-07T15:06:10;3.97;;;2.00;;
12725;SDS011;6427;49.754;6.106;2023-05-07T15:08:37;2.50;;;2.20;;
12725;SDS011;6427;49.754;6.106;2023-05-07T15:11:05;6.80;;;2.60;;
12725;SDS011;6427;49.754;6.106;2023-05-07T15:13:33;7.17;;;1.90;;
12725;SDS011;6427;49.754;6.106;2023-05-07T15:16:00;3.43;;;1.90;;
12725;SDS011;6427;49.754;6.106;2023-05-07T15:18:28;3.70;;;2.23;;
12725;SDS011;6427;49.754;6.106;2023-05-07T15:20:57;3.00;;;1.73;;
12725;SDS011;6427;49.754;6.106;2023-05-07T15:23:24;2.80;;;1.97;;